Time;durP1;ratioP1;P1;durP2;ratioP2;P2;SDS_P1;SDS_P2;PMS_P1;PMS_P2;Temp;Humidity;BMP_temperature;BMP_pressure;BME280_temperature;BME280_humidity;BME280_pressure;Samples;Min_cycle;Max_cycle;Signal;HPM_P1;HPM_P2
2023/08/29 00:02:23;;;;;;;;;;;;;;;23.52;50.71;94755.78;10490223;28;1953;-65
2023/08/29 00:07:23;;;;;;;;;;;;;;;23.52;50.86;94775.06;10481273;28;2212;-64
2023/08/29 00:12:23;;;;;;;;;;;;;;;23.49;50.71;94775.72;10491490;28;1857;-64
2023/08/29 00:17:24;;;;;;;;;;;;;;;23.50;50.78;94773.81;10494592;28;1912;-64
2023/08/29 00:22:24;;;;;;;;;;;;;;;23.48;50.70;94782.09;10481599;28;1943;-65
2023/08/29 00:27:24;;;;;;;;;;;;;;;23.48;50.66;94784.72;10493430;28;2008;-64
2023/08/29 00:32:24;;;;;;;;;;;;;;;23.45;50.60;94774.78;10489779;28;1892;-64
2023/08/29 00:37:25;;;;;;;;;;;;;;;23.46;50.58;94781.63;10478885;28;1959;-63
2023/08/29 00:42:25;;;;;;;;;;;;;;;23.46;50.58;94781.63;10484160;28;4559;-64
2023/08/29 00:47:25;;;;;;;;;;;;;;;23.44;50.52;94774.00;10489736;28;2522;-65
2023/08/29 00:52:26;;;;;;;;;;;;;;;23.44;50.74;94770.59;10485296;28;1928;-64
2023/08/29 00:57:26;;;;;;;;;;;;;;;23.42;50.61;94764.84;10486349;28;1876;-65
2023/08/29 01:02:26;;;;;;;;;;;;;;;23.42;50.46;94768.25;10493253;28;1963;-65
2023/08/29 01:07:26;;;;;;;;;;;;;;;23.42;50.71;94762.19;10493542;28;2009;-65
2023/08/29 01:12:31;;;;;;;;;;;;;;;23.40;50.28;94764.38;10486015;28;1943;-64
2023/08/29 01:17:32;;;;;;;;;;;;;;;23.40;50.38;94767.00;10489942;28;2000;-64
2023/08/29 01:22:52;;;;;;;;;;;;;;;23.39;50.58;94757.50;10486376;28;1902;-64
2023/08/29 01:27:52;;;;;;;;;;;;;;;23.38;50.52;94758.63;10493120;28;1896;-64
2023/08/29 01:32:52;;;;;;;;;;;;;;;23.38;50.40;94758.63;10490483;28;1999;-64
2023/08/29 01:37:53;;;;;;;;;;;;;;;23.37;50.42;94759.69;10465244;28;1982;-64
2023/08/29 01:42:53;;;;;;;;;;;;;;;23.36;50.50;94760.81;10479234;28;4567;-64
2023/08/29 01:47:53;;;;;;;;;;;;;;;23.35;50.25;94765.31;10496041;28;1805;-64
2023/08/29 01:52:54;;;;;;;;;;;;;;;23.35;50.44;94767.97;10487776;28;1871;-63
2023/08/29 01:57:54;;;;;;;;;;;;;;;23.35;50.40;94764.53;10468813;28;2212;-64
2023/08/29 02:02:54;;;;;;;;;;;;;;;23.32;50.36;94771.25;10492502;28;2306;-64
2023/08/29 02:07:54;;;;;;;;;;;;;;;23.33;50.17;94758.78;10492337;28;1973;-65
2023/08/29 02:12:55;;;;;;;;;;;;;;;23.31;50.01;94774.16;10506153;28;1855;-65
2023/08/29 02:17:55;;;;;;;;;;;;;;;23.30;50.30;94768.09;10477419;28;1926;-64
2023/08/29 02:22:55;;;;;;;;;;;;;;;23.30;49.99;94762.81;10499168;28;2058;-64
2023/08/29 02:27:56;;;;;;;;;;;;;;;23.30;50.24;94764.69;10498483;28;1945;-64
2023/08/29 02:32:56;;;;;;;;;;;;;;;23.29;50.07;94765.75;10488789;28;1948;-64
2023/08/29 02:37:58;;;;;;;;;;;;;;;23.27;50.02;94760.78;10492637;28;2432;-64
2023/08/29 02:42:58;;;;;;;;;;;;;;;23.29;50.15;94768.41;10491083;28;4532;-64
2023/08/29 02:47:59;;;;;;;;;;;;;;;23.28;50.00;94772.16;10497699;28;1865;-64
2023/08/29 02:52:59;;;;;;;;;;;;;;;23.27;50.10;94766.06;10500038;28;1918;-64
2023/08/29 02:57:59;;;;;;;;;;;;;;;23.27;50.01;94765.28;10502793;28;1870;-63
2023/08/29 03:03:00;;;;;;;;;;;;;;;23.26;49.94;94767.19;10500833;28;1941;-64
2023/08/29 03:08:02;;;;;;;;;;;;;;;23.26;50.02;94763.75;10500324;28;1885;-65
2023/08/29 03:13:03;;;;;;;;;;;;;;;23.24;49.91;94756.13;10492969;28;1982;-64
2023/08/29 03:18:03;;;;;;;;;;;;;;;23.25;50.00;94756.91;10504141;28;1900;-64
2023/08/29 03:23:03;;;;;;;;;;;;;;;23.24;49.88;94758.78;10481108;28;1976;-64
2023/08/29 03:28:04;;;;;;;;;;;;;;;23.23;50.06;94749.28;10492593;28;1955;-65
2023/08/29 03:33:04;;;;;;;;;;;;;;;23.24;49.91;94752.72;10489470;28;1883;-64
2023/08/29 03:38:04;;;;;;;;;;;;;;;23.23;50.00;94748.50;10487205;28;2373;-64
2023/08/29 03:43:05;;;;;;;;;;;;;;;23.22;49.86;94749.59;10484751;28;1980;-65
2023/08/29 03:48:05;;;;;;;;;;;;;;;23.21;49.72;94753.31;10488194;28;1963;-64
2023/08/29 03:53:06;;;;;;;;;;;;;;;23.21;49.83;94755.97;10503388;28;1918;-63
2023/08/29 03:58:06;;;;;;;;;;;;;;;23.21;49.76;94758.63;10489754;28;1938;-64
2023/08/29 04:03:06;;;;;;;;;;;;;;;23.19;49.66;94758.94;10490902;28;1927;-64
2023/08/29 04:08:07;;;;;;;;;;;;;;;23.20;49.78;94759.72;10490523;28;1879;-65
2023/08/29 04:13:07;;;;;;;;;;;;;;;23.18;49.52;94754.75;10491823;28;1997;-64
2023/08/29 04:18:11;;;;;;;;;;;;;;;23.18;49.70;94757.41;10488766;28;1939;-63
2023/08/29 04:23:13;;;;;;;;;;;;;;;23.18;49.75;94762.69;10485402;28;2299;-64
2023/08/29 04:28:19;;;;;;;;;;;;;;;23.16;49.68;94764.84;10504074;28;1985;-64
2023/08/29 04:33:20;;;;;;;;;;;;;;;23.17;49.63;94765.63;10483067;28;2605;-64
2023/08/29 04:38:20;;;;;;;;;;;;;;;23.15;49.60;94767.78;10487927;28;1959;-64
2023/08/29 04:43:20;;;;;;;;;;;;;;;23.15;49.52;94767.78;10488822;28;4611;-64
2023/08/29 04:48:23;;;;;;;;;;;;;;;23.15;49.34;94757.22;10469704;28;1916;-64
2023/08/29 04:53:23;;;;;;;;;;;;;;;23.13;49.52;94754.91;10477889;28;1945;-64
2023/08/29 04:58:24;;;;;;;;;;;;;;;23.14;49.61;94750.41;10484656;28;2009;-64
2023/08/29 05:03:24;;;;;;;;;;;;;;;23.13;49.46;94760.19;10480986;28;2021;-64
2023/08/29 05:08:24;;;;;;;;;;;;;;;23.13;49.47;94759.41;10483017;28;1816;-64
2023/08/29 05:13:24;;;;;;;;;;;;;;;23.12;49.49;94755.97;10487211;28;1857;-64
2023/08/29 05:18:27;;;;;;;;;;;;;;;23.13;49.33;94759.41;10489575;28;1773;-64
2023/08/29 05:23:27;;;;;;;;;;;;;;;23.11;49.48;94762.38;10496202;28;1910;-63
2023/08/29 05:28:27;;;;;;;;;;;;;;;23.10;49.42;94763.44;10485501;28;2235;-64
2023/08/29 05:33:29;;;;;;;;;;;;;;;23.09;49.36;94769.84;10495570;28;1875;-64
2023/08/29 05:38:30;;;;;;;;;;;;;;;23.09;49.18;94759.25;10491728;28;1996;-63
2023/08/29 05:43:30;;;;;;;;;;;;;;;23.09;49.28;94769.84;10500822;28;4666;-64
2023/08/29 05:48:30;;;;;;;;;;;;;;;23.09;49.13;94769.06;10505945;28;1855;-64
2023/08/29 05:53:30;;;;;;;;;;;;;;;23.07;49.10;94772.00;10504093;28;1858;-64
2023/08/29 05:58:31;;;;;;;;;;;;;;;23.08;49.11;94780.72;10490936;28;1824;-64
2023/08/29 06:03:31;;;;;;;;;;;;;;;23.06;49.22;94780.25;10499195;28;1917;-64
2023/08/29 06:08:33;;;;;;;;;;;;;;;23.07;49.33;94781.81;10500268;28;1856;-62
2023/08/29 06:13:33;;;;;;;;;;;;;;;23.07;49.22;94787.09;10509703;28;1926;-63
2023/08/29 06:18:34;;;;;;;;;;;;;;;23.07;49.31;94793.16;10490019;28;1859;-65
2023/08/29 06:23:34;;;;;;;;;;;;;;;23.08;49.48;94794.69;10485470;28;1949;-65
2023/08/29 06:28:35;;;;;;;;;;;;;;;23.08;49.50;94801.88;10490006;28;1910;-63
2023/08/29 06:33:36;;;;;;;;;;;;;;;23.10;49.57;94797.06;10486107;28;1847;-63
2023/08/29 06:38:36;;;;;;;;;;;;;;;23.10;49.52;94804.97;10466961;28;1877;-63
2023/08/29 06:43:37;;;;;;;;;;;;;;;23.10;49.61;94815.56;10487411;28;4527;-64
2023/08/29 06:48:37;;;;;;;;;;;;;;;23.11;49.60;94822.38;10497242;28;1880;-64
2023/08/29 06:53:37;;;;;;;;;;;;;;;23.11;49.77;94828.47;10445064;28;1867;-63
2023/08/29 06:58:38;;;;;;;;;;;;;;;23.21;49.72;94833.44;10496773;28;1785;-64
2023/08/29 07:03:38;;;;;;;;;;;;;;;23.35;49.55;94825.34;10471797;28;1910;-63
2023/08/29 07:08:39;;;;;;;;;;;;;;;23.44;49.28;94820.84;10495078;28;2004;-66
2023/08/29 07:13:40;;;;;;;;;;;;;;;23.55;49.14;94824.72;10492374;28;1782;-62
2023/08/29 07:18:40;;;;;;;;;;;;;;;23.65;48.79;94829.69;10451951;28;2298;-62
2023/08/29 07:23:40;;;;;;;;;;;;;;;23.76;48.68;94841.47;10495685;28;1985;-61
2023/08/29 07:28:41;;;;;;;;;;;;;;;23.84;48.53;94843.34;10480688;28;1872;-62
2023/08/29 07:33:41;;;;;;;;;;;;;;;23.91;48.40;94848.13;10493266;28;1871;-62
2023/08/29 07:38:42;;;;;;;;;;;;;;;23.95;48.03;94846.41;10486784;28;1808;-62
2023/08/29 07:43:42;;;;;;;;;;;;;;;24.00;48.38;94852.31;10484947;28;4540;-62
2023/08/29 07:48:42;;;;;;;;;;;;;;;24.03;47.98;94849.06;10487257;28;1895;-63
2023/08/29 07:53:42;;;;;;;;;;;;;;;24.05;47.97;94849.50;10479689;28;1874;-63
2023/08/29 07:58:43;;;;;;;;;;;;;;;24.08;48.01;94854.19;10471687;28;1776;-63
2023/08/29 08:03:43;;;;;;;;;;;;;;;24.08;48.00;94848.88;10475989;28;1890;-63
2023/08/29 08:08:44;;;;;;;;;;;;;;;24.10;47.65;94849.34;10480930;28;1757;-63
2023/08/29 08:13:44;;;;;;;;;;;;;;;24.13;47.84;94858.53;10482370;28;1805;-62
2023/08/29 08:18:44;;;;;;;;;;;;;;;24.14;47.57;94860.88;10476218;28;2414;-62
2023/08/29 08:23:44;;;;;;;;;;;;;;;24.13;47.53;94859.28;10480407;28;2129;-62
2023/08/29 08:28:45;;;;;;;;;;;;;;;24.15;47.69;94864.28;10488653;28;1789;-61
2023/08/29 08:33:45;;;;;;;;;;;;;;;24.17;47.46;94860.22;10484271;28;1680;-62
2023/08/29 08:38:45;;;;;;;;;;;;;;;24.14;47.57;94871.44;10480216;28;1872;-62
2023/08/29 08:43:46;;;;;;;;;;;;;;;24.17;47.66;94888.59;10466558;28;4703;-62
2023/08/29 08:48:46;;;;;;;;;;;;;;;24.17;47.45;94891.22;10490104;28;1872;-62
2023/08/29 08:53:46;;;;;;;;;;;;;;;24.17;47.49;94902.56;10460861;28;1848;-62
2023/08/29 08:58:46;;;;;;;;;;;;;;;24.18;47.37;94900.72;10476516;28;1822;-62
2023/08/29 09:03:47;;;;;;;;;;;;;;;24.05;47.53;94907.00;10472746;28;1970;-62
2023/08/29 09:08:47;;;;;;;;;;;;;;;23.96;47.61;94908.84;10483646;28;1888;-62
2023/08/29 09:13:47;;;;;;;;;;;;;;;23.86;47.68;94909.19;10475699;28;2319;-61
2023/08/29 09:18:49;;;;;;;;;;;;;;;23.76;48.15;94904.97;10487358;28;1821;-61
2023/08/29 09:23:50;;;;;;;;;;;;;;;23.68;47.85;94905.00;10485189;28;1977;-62
2023/08/29 09:28:50;;;;;;;;;;;;;;;23.59;48.06;94902.38;10482695;28;1818;-61
2023/08/29 09:33:50;;;;;;;;;;;;;;;23.56;48.14;94910.91;10464499;28;1859;-62
2023/08/29 09:38:51;;;;;;;;;;;;;;;23.50;48.59;94903.44;10478183;28;2045;-62
2023/08/29 09:43:53;;;;;;;;;;;;;;;23.46;48.55;94900.66;10474426;28;4491;-62
2023/08/29 09:48:55;;;;;;;;;;;;;;;23.41;48.95;94904.22;10471364;28;1807;-62
2023/08/29 09:53:58;;;;;;;;;;;;;;;23.38;48.76;94912.00;10480083;28;1803;-62
2023/08/29 09:58:58;;;;;;;;;;;;;;;23.35;48.82;94908.13;10474127;28;1824;-61
2023/08/29 10:03:58;;;;;;;;;;;;;;;23.31;48.74;94912.44;10460133;28;2002;-61
2023/08/29 10:08:59;;;;;;;;;;;;;;;23.30;49.43;94905.59;10486530;28;2265;-62
2023/08/29 10:13:59;;;;;;;;;;;;;;;23.30;49.72;94912.75;10482312;28;2030;-62
2023/08/29 10:19:01;;;;;;;;;;;;;;;23.31;50.37;94919.59;10489833;28;1863;-63
2023/08/29 10:24:02;;;;;;;;;;;;;;;23.33;50.62;94917.44;10495154;28;1979;-62
2023/08/29 10:29:03;;;;;;;;;;;;;;;23.35;51.21;94915.25;10489673;28;1816;-61
2023/08/29 10:34:03;;;;;;;;;;;;;;;23.37;51.10;94919.16;10489032;28;1852;-62
2023/08/29 10:39:04;;;;;;;;;;;;;;;23.39;51.26;94916.19;10492866;28;1936;-61
2023/08/29 10:44:43;;;;;;;;;;;;;;;23.38;51.58;94909.38;10498071;28;4584;-61
2023/08/29 10:49:43;;;;;;;;;;;;;;;23.42;51.77;94919.03;10339468;28;1958;-62
2023/08/29 10:54:43;;;;;;;;;;;;;;;23.42;51.87;94910.31;10433611;28;1966;-62
2023/08/29 10:59:44;;;;;;;;;;;;;;;23.43;51.82;94912.63;10482983;28;1824;-63
2023/08/29 11:04:44;;;;;;;;;;;;;;;23.42;51.67;94910.31;10481537;28;2313;-62
2023/08/29 11:09:44;;;;;;;;;;;;;;;23.42;51.53;94905.00;10481996;28;1835;-62
2023/08/29 11:14:51;;;;;;;;;;;;;;;23.39;51.37;94900.31;10473110;28;1995;-62
2023/08/29 11:19:52;;;;;;;;;;;;;;;23.41;51.77;94903.47;10487165;28;1871;-62
2023/08/29 11:24:55;;;;;;;;;;;;;;;23.40;51.72;94886.81;10481915;28;1906;-62
2023/08/29 11:29:56;;;;;;;;;;;;;;;23.40;51.75;94880.75;10476664;28;1955;-62
2023/08/29 11:34:56;;;;;;;;;;;;;;;23.39;51.90;94885.25;10485106;28;2033;-62
2023/08/29 11:39:58;;;;;;;;;;;;;;;23.38;51.86;94898.78;10483165;28;1918;-61
2023/08/29 11:44:59;;;;;;;;;;;;;;;23.37;51.71;94892.72;10483577;28;4489;-62
2023/08/29 11:50:04;;;;;;;;;;;;;;;23.35;51.54;94900.19;10472777;28;1874;-61
2023/08/29 11:55:07;;;;;;;;;;;;;;;23.32;51.68;94897.38;10471258;28;1908;-62
2023/08/29 12:00:08;;;;;;;;;;;;;;;23.30;51.70;94897.69;10490534;28;2295;-62
2023/08/29 12:05:10;;;;;;;;;;;;;;;23.28;51.10;94909.66;10466419;28;1971;-63
2023/08/29 12:10:13;;;;;;;;;;;;;;;23.28;51.43;94915.72;10489387;28;1798;-62
2023/08/29 12:15:14;;;;;;;;;;;;;;;23.26;51.56;94919.75;10479811;28;1887;-61
2023/08/29 12:20:15;;;;;;;;;;;;;;;23.26;51.25;94928.47;10476610;28;1876;-60
2023/08/29 12:25:15;;;;;;;;;;;;;;;23.23;51.61;94929.06;10479343;28;2127;-61
2023/08/29 12:30:16;;;;;;;;;;;;;;;23.23;51.35;94941.50;10477993;28;2006;-61
2023/08/29 12:35:16;;;;;;;;;;;;;;;23.21;51.34;94930.47;10473635;28;1852;-61
2023/08/29 12:40:16;;;;;;;;;;;;;;;23.22;51.40;94934.69;10475187;28;2157;-60
2023/08/29 12:45:17;;;;;;;;;;;;;;;23.21;51.35;94941.03;10477356;28;4520;-61
2023/08/29 12:50:17;;;;;;;;;;;;;;;23.19;51.15;94933.44;10472956;28;1933;-61
2023/08/29 12:55:17;;;;;;;;;;;;;;;23.17;51.36;94935.59;10470416;28;1820;-61
2023/08/29 13:00:18;;;;;;;;;;;;;;;23.19;51.52;94943.22;10473989;28;2319;-61
2023/08/29 13:05:18;;;;;;;;;;;;;;;23.17;51.36;94935.59;10474243;28;1921;-62
2023/08/29 13:10:20;;;;;;;;;;;;;;;23.17;51.25;94927.69;10471498;28;1847;-62
2023/08/29 13:15:20;;;;;;;;;;;;;;;23.16;51.24;94928.75;10477100;28;1769;-62
2023/08/29 13:20:21;;;;;;;;;;;;;;;23.19;51.35;94927.34;10478717;28;1472;-62
2023/08/29 13:25:21;;;;;;;;;;;;;;;23.17;51.07;94914.47;10480318;28;1910;-61
2023/08/29 13:30:22;;;;;;;;;;;;;;;23.18;51.42;94923.97;10481484;28;1866;-61
2023/08/29 13:35:22;;;;;;;;;;;;;;;23.17;51.25;94925.03;10481041;28;1726;-61
2023/08/29 13:40:22;;;;;;;;;;;;;;;23.19;51.21;94919.44;10475217;28;1867;-62
2023/08/29 13:45:22;;;;;;;;;;;;;;;23.16;50.92;94923.47;10471685;28;4449;-61
2023/08/29 13:50:23;;;;;;;;;;;;;;;23.18;51.15;94928.47;10474114;28;1875;-61
2023/08/29 13:55:23;;;;;;;;;;;;;;;23.16;51.29;94936.69;10453108;28;2243;-61
2023/08/29 14:00:24;;;;;;;;;;;;;;;23.15;51.25;94932.50;10475644;28;1913;-62
2023/08/29 14:05:24;;;;;;;;;;;;;;;23.14;51.32;94935.44;10471358;28;1921;-62
2023/08/29 14:10:24;;;;;;;;;;;;;;;23.12;50.92;94932.34;10455908;28;1832;-61
2023/08/29 14:15:26;;;;;;;;;;;;;;;23.12;51.12;94933.09;10473417;28;2288;-66
2023/08/29 14:20:26;;;;;;;;;;;;;;;23.14;51.02;94930.16;10478715;28;1854;-65
2023/08/29 14:25:28;;;;;;;;;;;;;;;23.12;51.16;94933.09;10473138;28;1917;-68
2023/08/29 14:30:28;;;;;;;;;;;;;;;23.10;50.93;94929.22;10479462;28;2318;-65
2023/08/29 14:35:28;;;;;;;;;;;;;;;23.09;51.23;94938.22;10474096;28;1923;-67
2023/08/29 14:40:28;;;;;;;;;;;;;;;23.08;50.78;94937.44;10472114;28;2002;-66
2023/08/29 14:45:29;;;;;;;;;;;;;;;23.07;51.15;94935.13;10472886;28;4474;-65
2023/08/29 14:50:29;;;;;;;;;;;;;;;23.08;50.85;94941.97;10473704;28;2330;-66
2023/08/29 14:55:29;;;;;;;;;;;;;;;23.07;50.68;94946.47;10482462;28;1864;-65
2023/08/29 15:00:30;;;;;;;;;;;;;;;23.06;50.78;94950.19;10481906;28;1974;-65
2023/08/29 15:05:30;;;;;;;;;;;;;;;23.20;50.52;94960.66;10478985;28;1953;-63
2023/08/29 15:10:31;;;;;;;;;;;;;;;23.29;50.28;94962.22;10484956;28;1828;-63
2023/08/29 15:15:31;;;;;;;;;;;;;;;23.41;50.39;94957.13;10483548;28;1867;-61
2023/08/29 15:20:31;;;;;;;;;;;;;;;23.56;50.05;94961.19;10485485;28;1895;-73
2023/08/29 15:25:32;;;;;;;;;;;;;;;23.70;49.89;94955.75;10483352;28;1922;-71
2023/08/29 15:30:32;;;;;;;;;;;;;;;23.85;49.43;94960.53;10485887;28;1845;-70
2023/08/29 15:35:32;;;;;;;;;;;;;;;23.90;49.01;94969.13;10492849;28;1804;-75
2023/08/29 15:40:32;;;;;;;;;;;;;;;23.97;48.87;94972.06;10466102;28;1891;-71
2023/08/29 15:45:34;;;;;;;;;;;;;;;24.07;48.76;94971.75;10489842;28;2336;-71
2023/08/29 15:50:35;;;;;;;;;;;;;;;24.05;48.68;94973.94;10475450;28;1885;-65
2023/08/29 15:55:35;;;;;;;;;;;;;;;24.11;48.61;94971.94;10485012;28;2066;-65
2023/08/29 16:00:36;;;;;;;;;;;;;;;24.10;48.67;94976.44;10489777;28;1811;-66
2023/08/29 16:05:37;;;;;;;;;;;;;;;24.15;48.08;94981.56;10479527;28;1980;-66
2023/08/29 16:10:39;;;;;;;;;;;;;;;24.14;48.15;94987.97;10498057;28;1959;-66
2023/08/29 16:15:39;;;;;;;;;;;;;;;24.15;48.22;94992.16;10482044;28;1868;-65
2023/08/29 16:20:40;;;;;;;;;;;;;;;24.17;48.07;94995.25;10482105;28;1811;-65
2023/08/29 16:25:40;;;;;;;;;;;;;;;24.17;48.11;94999.81;10477286;28;1902;-73
2023/08/29 16:30:40;;;;;;;;;;;;;;;24.19;47.87;94997.63;10495347;28;1920;-73
2023/08/29 16:35:41;;;;;;;;;;;;;;;24.17;48.21;95005.09;10488164;28;1904;-73
2023/08/29 16:40:41;;;;;;;;;;;;;;;24.19;47.89;95008.97;10485887;28;4448;-67
2023/08/29 16:45:41;;;;;;;;;;;;;;;24.23;47.92;95004.59;10488763;28;2352;-70
2023/08/29 16:50:43;;;;;;;;;;;;;;;24.20;47.78;95009.75;10485304;28;1875;-69
2023/08/29 16:55:44;;;;;;;;;;;;;;;24.12;47.84;95013.97;10487205;28;1851;-68
2023/08/29 17:00:45;;;;;;;;;;;;;;;24.12;48.14;95013.19;10486890;28;1689;-68
2023/08/29 17:05:45;;;;;;;;;;;;;;;24.10;48.71;95013.50;10491938;28;1984;-67
2023/08/29 17:10:47;;;;;;;;;;;;;;;24.09;49.42;95019.88;10485975;28;1530;-66
2023/08/29 17:15:48;;;;;;;;;;;;;;;24.09;49.14;95011.94;10483507;28;1497;-70
2023/08/29 17:20:48;;;;;;;;;;;;;;;24.11;49.09;95015.06;10480229;28;1473;-68
2023/08/29 17:25:48;;;;;;;;;;;;;;;24.10;49.21;95033.91;10495783;28;1901;-66
2023/08/29 17:30:48;;;;;;;;;;;;;;;24.10;49.60;95033.91;10472537;28;1645;-64
2023/08/29 17:35:49;;;;;;;;;;;;;;;24.13;49.89;95035.94;10491893;28;1675;-64
2023/08/29 17:40:49;;;;;;;;;;;;;;;24.10;49.88;95036.56;10487534;28;4503;-67
2023/08/29 17:45:55;;;;;;;;;;;;;;;24.09;49.88;95041.06;10490072;28;1977;-66
2023/08/29 17:50:58;;;;;;;;;;;;;;;24.09;50.19;95033.13;10469691;28;1430;-68
2023/08/29 17:55:58;;;;;;;;;;;;;;;24.10;50.45;95041.84;10511790;28;1499;-68
2023/08/29 18:00:59;;;;;;;;;;;;;;;24.08;50.26;95039.53;10493104;28;1949;-67
2023/08/29 18:05:59;;;;;;;;;;;;;;;24.08;50.18;95039.53;10501704;28;1906;-69
2023/08/29 18:10:59;;;;;;;;;;;;;;;23.98;50.58;95037.16;10495069;28;1824;-69
2023/08/29 18:16:02;;;;;;;;;;;;;;;23.93;50.53;95044.47;10494723;28;1598;-68
2023/08/29 18:21:03;;;;;;;;;;;;;;;23.91;50.21;95042.13;10489386;28;1537;-68
2023/08/29 18:26:07;;;;;;;;;;;;;;;23.77;50.46;95052.09;10494404;28;1913;-71
2023/08/29 18:31:08;;;;;;;;;;;;;;;23.73;50.79;95048.50;10492155;28;1528;-68
2023/08/29 18:36:08;;;;;;;;;;;;;;;23.72;50.91;95060.16;10488833;28;2251;-74
2023/08/29 18:41:09;;;;;;;;;;;;;;;23.68;51.33;95063.78;10491466;28;4539;-68
2023/08/29 18:46:10;;;;;;;;;;;;;;;23.60;52.48;95069.78;10492115;28;1906;-69
2023/08/29 18:51:10;;;;;;;;;;;;;;;23.59;52.33;95074.34;10492084;28;1824;-67
2023/08/29 18:56:13;;;;;;;;;;;;;;;23.55;52.64;95073.38;10488083;28;1884;-73
2023/08/29 19:01:13;;;;;;;;;;;;;;;23.51;51.99;95077.75;10471549;28;1851;-67
2023/08/29 19:06:19;;;;;;;;;;;;;;;23.55;52.18;95081.31;10480191;28;1965;-72
2023/08/29 19:11:20;;;;;;;;;;;;;;;23.51;52.01;95082.25;10493983;28;1813;-73
2023/08/29 19:16:21;;;;;;;;;;;;;;;23.51;52.48;95075.09;10488816;28;1746;-71
2023/08/29 19:21:21;;;;;;;;;;;;;;;23.50;52.66;95070.88;10479220;28;1875;-75
2023/08/29 19:26:21;;;;;;;;;;;;;;;23.47;52.90;95071.50;10489527;28;1985;-74
2023/08/29 19:31:22;;;;;;;;;;;;;;;23.44;52.25;95070.25;10480617;28;2279;-74
2023/08/29 19:36:22;;;;;;;;;;;;;;;23.45;52.68;95071.03;10499494;28;1817;-74
2023/08/29 19:41:22;;;;;;;;;;;;;;;23.47;52.62;95076.00;10489289;28;4627;-71
2023/08/29 19:46:22;;;;;;;;;;;;;;;23.37;52.37;95071.75;10492113;28;1953;-69
2023/08/29 19:51:23;;;;;;;;;;;;;;;23.33;52.17;95076.13;10480138;28;1832;-69
2023/08/29 19:56:23;;;;;;;;;;;;;;;23.32;52.31;95070.06;10486293;28;1819;-70
2023/08/29 20:01:23;;;;;;;;;;;;;;;23.20;52.89;95075.13;10486322;28;1968;-69
2023/08/29 20:06:25;;;;;;;;;;;;;;;23.18;52.41;95084.44;10487751;28;1902;-69
2023/08/29 20:11:26;;;;;;;;;;;;;;;23.14;52.73;95078.22;10481256;28;1875;-69
2023/08/29 20:16:26;;;;;;;;;;;;;;;23.07;52.85;95081.28;10482561;28;1844;-79
2023/08/29 20:21:27;;;;;;;;;;;;;;;23.02;53.32;95081.41;10489683;28;1828;-76
2023/08/29 20:26:27;;;;;;;;;;;;;;;22.98;52.90;95077.81;10483594;28;2346;-76
2023/08/29 20:31:27;;;;;;;;;;;;;;;22.96;53.02;95087.13;10486712;28;1903;-76
2023/08/29 20:36:27;;;;;;;;;;;;;;;22.94;53.76;95087.44;10489291;28;1816;-75
2023/08/29 20:41:28;;;;;;;;;;;;;;;22.91;53.51;95089.94;10486336;28;4445;-76
2023/08/29 20:46:29;;;;;;;;;;;;;;;22.89;53.84;95081.53;10482303;28;1969;-75
2023/08/29 20:51:29;;;;;;;;;;;;;;;22.86;53.30;95087.41;10482359;28;1950;-75
2023/08/29 20:56:30;;;;;;;;;;;;;;;22.85;53.93;95097.22;10487073;28;1948;-75
2023/08/29 21:01:30;;;;;;;;;;;;;;;22.82;53.81;95097.81;10490555;28;1860;-75
2023/08/29 21:06:30;;;;;;;;;;;;;;;22.81;53.97;95106.03;10455606;28;1914;-75
2023/08/29 21:11:30;;;;;;;;;;;;;;;22.80;53.97;95089.41;10488818;28;1816;-75
2023/08/29 21:16:31;;;;;;;;;;;;;;;22.78;54.13;95090.78;10481157;28;1922;-75
2023/08/29 21:21:31;;;;;;;;;;;;;;;22.77;54.23;95099.81;10489127;28;1394;-76
2023/08/29 21:26:32;;;;;;;;;;;;;;;22.76;54.35;95095.59;10498656;28;2307;-74
2023/08/29 21:31:32;;;;;;;;;;;;;;;22.76;53.76;95103.50;10483800;28;1880;-76
2023/08/29 21:36:36;;;;;;;;;;;;;;;22.74;54.06;95105.69;10484484;28;1828;-76
2023/08/29 21:41:37;;;;;;;;;;;;;;;22.72;54.35;95092.78;10480647;28;1839;-75
2023/08/29 21:46:38;;;;;;;;;;;;;;;22.72;54.16;95097.28;10491895;28;1967;-74
2023/08/29 21:51:38;;;;;;;;;;;;;;;22.71;53.94;95093.09;10481687;28;1804;-75
2023/08/29 21:56:38;;;;;;;;;;;;;;;22.70;54.47;95094.16;10487092;28;1887;-74
2023/08/29 22:01:38;;;;;;;;;;;;;;;22.67;54.17;95087.59;10480454;28;1950;-74
2023/08/29 22:06:39;;;;;;;;;;;;;;;22.67;54.32;95092.88;10487661;28;1950;-74
2023/08/29 22:11:39;;;;;;;;;;;;;;;22.64;54.39;95089.00;10482496;28;1891;-74
2023/08/29 22:16:39;;;;;;;;;;;;;;;22.64;54.43;95086.38;10487408;28;1843;-75
2023/08/29 22:21:39;;;;;;;;;;;;;;;22.64;54.40;95072.38;10492342;28;1847;-74
2023/08/29 22:26:40;;;;;;;;;;;;;;;22.61;54.40;95086.97;10484654;28;1910;-74
2023/08/29 22:31:40;;;;;;;;;;;;;;;22.61;54.27;95078.25;10501773;28;1828;-74
2023/08/29 22:36:40;;;;;;;;;;;;;;;22.59;54.33;95081.19;10490619;28;1800;-74
2023/08/29 22:41:41;;;;;;;;;;;;;;;22.58;54.66;95084.94;10500777;28;4504;-74
2023/08/29 22:46:41;;;;;;;;;;;;;;;22.58;54.31;95077.00;10496009;28;1967;-75
2023/08/29 22:51:42;;;;;;;;;;;;;;;22.57;54.21;95080.69;10489172;28;1811;-75
2023/08/29 22:56:42;;;;;;;;;;;;;;;22.55;53.87;95071.50;10487377;28;1885;-74
2023/08/29 23:01:43;;;;;;;;;;;;;;;22.55;53.75;95071.50;10493932;28;2122;-74
2023/08/29 23:06:44;;;;;;;;;;;;;;;22.53;54.09;95069.16;10492121;28;2089;-75
2023/08/29 23:11:44;;;;;;;;;;;;;;;22.53;53.96;95068.38;10485532;28;1842;-75
2023/08/29 23:16:45;;;;;;;;;;;;;;;22.52;53.92;95064.97;10488899;28;2308;-74
2023/08/29 23:21:46;;;;;;;;;;;;;;;22.52;53.97;95062.31;10483161;28;1879;-74
2023/08/29 23:26:46;;;;;;;;;;;;;;;22.50;53.86;95061.84;10493816;28;2072;-74
2023/08/29 23:31:47;;;;;;;;;;;;;;;22.50;53.67;95058.44;10478497;28;1871;-74
2023/08/29 23:36:47;;;;;;;;;;;;;;;22.49;53.77;95057.66;10489541;28;1820;-75
2023/08/29 23:41:48;;;;;;;;;;;;;;;22.49;53.86;95068.22;10487081;28;4484;-75
2023/08/29 23:46:48;;;;;;;;;;;;;;;22.48;53.20;95061.34;10499681;28;2004;-75
2023/08/29 23:51:48;;;;;;;;;;;;;;;22.46;53.63;95058.25;10487145;28;1887;-75
2023/08/29 23:56:48;;;;;;;;;;;;;;;22.46;53.21;95058.25;10491984;28;1864;-75
